Time;durP1;ratioP1;P1;durP2;ratioP2;P2;SDS_P1;SDS_P2;PMS_P1;PMS_P2;Temp;Humidity;BMP_temperature;BMP_pressure;BME280_temperature;BME280_humidity;BME280_pressure;Samples;Min_cycle;Max_cycle;Signal;HPM_P1;HPM_P2
2022/04/04 00:02:24;;;;;;;12.90;4.30;;;2.90;99.90;;;;;;4998375;28;20058;-74
2022/04/04 00:04:50;;;;;;;11.85;4.25;;;2.90;99.90;;;;;;4997933;28;20046;-72
2022/04/04 00:07:16;;;;;;;10.82;3.92;;;2.90;99.90;;;;;;4997907;28;20053;-73
2022/04/04 00:09:41;;;;;;;8.57;3.95;;;3.00;99.90;;;;;;4998212;28;20108;-72
2022/04/04 00:12:07;;;;;;;7.13;4.00;;;3.00;99.90;;;;;;4997801;28;20085;-74
2022/04/04 00:14:33;;;;;;;11.07;4.38;;;3.00;99.90;;;;;;4980779;28;20112;-72
2022/04/04 00:17:00;;;;;;;7.13;4.50;;;3.00;99.90;;;;;;4997802;28;20042;-72
2022/04/04 00:19:26;;;;;;;10.15;4.47;;;3.00;99.90;;;;;;4997987;28;20125;-73
2022/04/04 00:21:52;;;;;;;10.85;4.20;;;3.40;99.90;;;;;;4996413;28;20356;-73
2022/04/04 00:24:18;;;;;;;8.23;4.40;;;3.00;99.90;;;;;;4997672;28;20058;-73
2022/04/04 00:26:43;;;;;;;9.57;4.72;;;3.00;99.90;;;;;;4997740;28;20038;-73
2022/04/04 00:29:09;;;;;;;6.22;4.35;;;3.10;99.90;;;;;;4996364;28;20133;-73
2022/04/04 00:31:35;;;;;;;7.43;5.13;;;3.10;99.90;;;;;;4980438;28;20054;-73
2022/04/04 00:34:01;;;;;;;9.15;5.03;;;3.10;99.90;;;;;;4980233;28;20054;-73
2022/04/04 00:36:27;;;;;;;8.98;4.90;;;3.10;99.90;;;;;;4997824;28;20042;-73
2022/04/04 00:38:52;;;;;;;9.30;4.45;;;3.10;99.90;;;;;;4997611;28;20057;-72
2022/04/04 00:41:18;;;;;;;8.18;4.50;;;3.10;99.90;;;;;;4997405;28;20358;-71
2022/04/04 00:43:44;;;;;;;9.23;4.90;;;3.10;99.90;;;;;;4980319;28;20046;-72
2022/04/04 00:46:09;;;;;;;9.50;5.00;;;3.20;99.90;;;;;;4997137;28;20426;-73
2022/04/04 00:48:35;;;;;;;11.13;5.25;;;3.20;99.90;;;;;;4997054;28;20050;-72
2022/04/04 00:51:02;;;;;;;9.27;4.55;;;3.20;99.90;;;;;;4962721;28;20100;-72
2022/04/04 00:53:30;;;;;;;8.60;5.18;;;3.20;99.90;;;;;;4997172;28;20042;-71
2022/04/04 00:55:56;;;;;;;9.73;5.40;;;3.20;99.90;;;;;;4996957;28;20446;-72
2022/04/04 00:58:22;;;;;;;8.73;5.35;;;3.30;99.90;;;;;;4996615;28;20042;-72
2022/04/04 01:00:49;;;;;;;7.97;5.32;;;3.30;99.90;;;;;;4996738;28;20074;-73
2022/04/04 01:03:15;;;;;;;8.75;5.35;;;3.30;99.90;;;;;;4997140;28;20061;-73
2022/04/04 01:05:44;;;;;;;10.38;5.75;;;3.30;99.90;;;;;;4979908;28;20086;-72
2022/04/04 01:08:12;;;;;;;8.27;5.28;;;3.30;99.90;;;;;;4996723;28;20064;-72
2022/04/04 01:10:39;;;;;;;11.10;6.07;;;3.30;99.90;;;;;;4979521;28;20082;-72
2022/04/04 01:13:04;;;;;;;10.40;6.38;;;3.40;99.90;;;;;;4996557;28;20073;-74
2022/04/04 01:15:32;;;;;;;9.80;6.07;;;3.40;99.90;;;;;;4996911;28;20046;-72
2022/04/04 01:17:59;;;;;;;10.18;6.25;;;3.40;99.90;;;;;;4996897;28;20078;-72
2022/04/04 01:20:24;;;;;;;10.75;7.22;;;3.40;99.90;;;;;;4979558;28;20065;-74
2022/04/04 01:22:50;;;;;;;11.52;6.60;;;3.40;99.90;;;;;;4996295;28;20367;-72
2022/04/04 01:25:22;;;;;;;15.32;7.38;;;3.50;99.90;;;;;;4996463;28;20039;-72
2022/04/04 01:27:48;;;;;;;10.07;6.97;;;3.50;99.90;;;;;;4979433;28;20142;-73
2022/04/04 01:30:13;;;;;;;14.15;7.53;;;3.50;99.90;;;;;;4979676;28;20281;-73
2022/04/04 01:32:39;;;;;;;13.88;7.80;;;3.60;99.90;;;;;;4996524;28;20039;-74
2022/04/04 01:35:05;;;;;;;13.48;8.13;;;3.60;99.90;;;;;;4996232;28;20055;-72
2022/04/04 01:37:31;;;;;;;15.80;8.68;;;3.60;99.90;;;;;;4996559;28;20043;-73
2022/04/04 01:39:58;;;;;;;12.55;8.23;;;3.60;99.90;;;;;;4995997;28;20053;-73
2022/04/04 01:42:24;;;;;;;16.60;9.40;;;3.60;99.90;;;;;;4979869;28;20042;-72
2022/04/04 01:44:50;;;;;;;14.77;8.27;;;3.60;99.90;;;;;;4979660;28;20053;-72
2022/04/04 01:47:15;;;;;;;13.57;8.23;;;3.60;99.90;;;;;;4996041;28;20046;-71
2022/04/04 01:49:41;;;;;;;13.38;8.63;;;3.70;99.90;;;;;;4996376;28;20050;-72
2022/04/04 01:52:07;;;;;;;13.32;8.88;;;3.70;99.90;;;;;;4978679;28;20054;-73
2022/04/04 01:54:32;;;;;;;13.77;9.18;;;3.70;99.90;;;;;;4995835;28;20459;-72
2022/04/04 01:56:58;;;;;;;18.63;10.38;;;4.10;99.90;;;;;;4995939;28;20047;-73
2022/04/04 01:59:23;;;;;;;17.42;10.82;;;3.70;99.90;;;;;;4996479;28;20120;-73
2022/04/04 02:01:49;;;;;;;16.50;10.23;;;3.80;99.90;;;;;;4996333;28;20042;-73
2022/04/04 02:04:15;;;;;;;14.90;10.68;;;3.70;99.90;;;;;;4978873;28;20058;-72
2022/04/04 02:06:40;;;;;;;17.83;10.43;;;3.70;99.90;;;;;;4996114;28;20506;-73
2022/04/04 02:09:07;;;;;;;15.93;11.52;;;3.70;99.90;;;;;;4995839;28;20378;-72
2022/04/04 02:11:32;;;;;;;17.55;11.00;;;3.70;99.90;;;;;;4995346;28;20046;-72
2022/04/04 02:13:59;;;;;;;15.57;11.25;;;3.70;99.90;;;;;;4995407;28;20046;-72
2022/04/04 02:16:25;;;;;;;17.77;11.85;;;3.80;99.90;;;;;;4978496;28;20125;-72
2022/04/04 02:18:51;;;;;;;17.83;11.82;;;3.80;99.90;;;;;;4995944;28;20057;-72
2022/04/04 02:21:16;;;;;;;19.35;11.98;;;3.80;99.90;;;;;;4995779;28;20459;-72
2022/04/04 02:23:42;;;;;;;22.25;12.43;;;3.80;99.90;;;;;;4995721;28;20125;-73
2022/04/04 02:26:07;;;;;;;18.67;12.18;;;3.80;99.90;;;;;;4978488;28;20119;-73
2022/04/04 02:28:34;;;;;;;17.73;13.15;;;3.80;99.90;;;;;;4995918;28;20046;-73
2022/04/04 02:31:00;;;;;;;15.45;12.07;;;3.80;99.90;;;;;;4995703;28;20074;-73
2022/04/04 02:33:26;;;;;;;18.40;12.48;;;3.90;99.90;;;;;;4995482;28;20056;-72
2022/04/04 02:35:52;;;;;;;16.17;12.32;;;3.80;99.90;;;;;;4995715;28;20038;-72
2022/04/04 02:38:20;;;;;;;15.93;12.00;;;3.90;99.90;;;;;;4995413;28;20103;-72
2022/04/04 02:40:46;;;;;;;21.52;12.93;;;3.90;99.90;;;;;;4995787;28;20038;-72
2022/04/04 02:43:12;;;;;;;16.85;13.27;;;3.90;99.90;;;;;;4995315;28;20466;-73
2022/04/04 02:45:37;;;;;;;19.67;13.55;;;4.00;99.90;;;;;;4994698;28;20133;-73
2022/04/04 02:48:03;;;;;;;20.38;13.77;;;3.90;99.90;;;;;;4995543;28;20054;-72
2022/04/04 02:50:29;;;;;;;19.58;13.50;;;4.00;99.90;;;;;;4995422;28;20086;-72
2022/04/04 02:52:55;;;;;;;18.88;12.63;;;4.00;99.90;;;;;;4997757;28;20053;-73
2022/04/04 02:58:06;;;;;;;18.25;13.48;;;4.30;99.90;;;;;;4999170;28;20081;-73
2022/04/04 03:00:31;;;;;;;19.27;13.45;;;4.00;99.90;;;;;;4999599;28;20042;-72
2022/04/04 03:02:58;;;;;;;21.17;13.98;;;4.00;99.90;;;;;;4981918;28;20379;-74
2022/04/04 03:05:24;;;;;;;19.15;13.63;;;4.40;99.90;;;;;;4999112;28;20050;-72
2022/04/04 03:07:51;;;;;;;20.38;13.23;;;4.10;99.90;;;;;;4999097;28;20111;-72
2022/04/04 03:10:17;;;;;;;23.60;13.52;;;4.10;99.90;;;;;;4999147;28;20155;-73
2022/04/04 03:12:45;;;;;;;18.40;12.93;;;4.10;99.90;;;;;;4995700;28;20061;-73
2022/04/04 03:15:14;;;;;;;22.70;13.65;;;4.20;99.90;;;;;;4998676;28;20340;-73
2022/04/04 03:17:41;;;;;;;21.67;13.02;;;4.20;99.90;;;;;;4998991;28;20463;-71
2022/04/04 03:20:09;;;;;;;21.75;14.38;;;4.20;99.90;;;;;;4998940;28;20054;-73
2022/04/04 03:22:45;;;;;;;21.70;13.55;;;4.20;99.90;;;;;;4998965;28;20046;-72
2022/04/04 03:25:12;;;;;;;22.55;14.05;;;4.30;99.90;;;;;;4998824;28;20043;-74
2022/04/04 03:27:39;;;;;;;24.05;14.38;;;4.30;99.90;;;;;;4998970;28;20042;-72
2022/04/04 03:30:08;;;;;;;21.60;13.52;;;4.40;99.90;;;;;;4998905;28;20046;-74
2022/04/04 03:32:33;;;;;;;20.67;13.77;;;4.40;99.90;;;;;;4998479;28;20056;-72
2022/04/04 03:34:59;;;;;;;21.50;13.23;;;4.50;99.90;;;;;;4998966;28;20042;-73
2022/04/04 03:37:27;;;;;;;19.65;13.45;;;4.50;99.90;;;;;;4998547;28;20042;-72
2022/04/04 03:39:52;;;;;;;18.55;12.80;;;4.60;99.90;;;;;;4981562;28;20050;-72
2022/04/04 03:42:19;;;;;;;21.35;13.32;;;4.60;99.90;;;;;;4998087;28;20073;-74
2022/04/04 03:44:45;;;;;;;22.52;12.68;;;4.60;99.90;;;;;;4998816;28;20442;-72
2022/04/04 03:47:11;;;;;;;23.55;14.02;;;4.70;99.90;;;;;;4998392;28;20088;-73
2022/04/04 03:49:37;;;;;;;25.33;14.73;;;4.70;99.90;;;;;;4999099;28;20086;-73
2022/04/04 03:52:04;;;;;;;25.17;13.77;;;4.70;99.90;;;;;;4998671;28;20050;-72
2022/04/04 03:54:30;;;;;;;25.35;13.10;;;4.70;99.90;;;;;;4998040;28;20082;-73
2022/04/04 03:56:56;;;;;;;21.23;13.95;;;4.70;99.90;;;;;;4998236;28;20047;-74
2022/04/04 03:59:22;;;;;;;18.77;13.30;;;4.70;99.90;;;;;;4981399;28;20061;-72
2022/04/04 04:01:48;;;;;;;24.73;13.75;;;4.80;99.90;;;;;;4980789;28;20454;-72
2022/04/04 04:04:13;;;;;;;23.63;14.40;;;4.90;99.90;;;;;;4998403;28;20043;-73
2022/04/04 04:06:39;;;;;;;24.67;15.48;;;4.90;99.90;;;;;;4998323;28;20042;-72
2022/04/04 04:09:04;;;;;;;25.60;15.10;;;4.90;99.90;;;;;;4998131;28;20050;-72
2022/04/04 04:11:30;;;;;;;29.85;15.30;;;4.90;99.90;;;;;;4997657;28;20046;-72
2022/04/04 04:13:55;;;;;;;22.63;14.60;;;4.90;99.90;;;;;;4979706;28;20121;-72
2022/04/04 04:16:23;;;;;;;22.38;15.55;;;4.80;99.90;;;;;;4997757;28;20060;-72
2022/04/04 04:18:49;;;;;;;22.58;14.90;;;4.90;99.90;;;;;;4997485;28;20108;-73
2022/04/04 04:21:15;;;;;;;26.83;15.05;;;4.90;99.90;;;;;;5001274;28;20050;-73
2022/04/04 04:23:44;;;;;;;21.70;14.50;;;4.80;99.90;;;;;;5005748;28;20042;-72
2022/04/04 04:26:13;;;;;;;28.48;16.90;;;4.80;99.90;;;;;;4997925;28;20097;-72
2022/04/04 04:28:45;;;;;;;21.65;14.98;;;4.80;99.90;;;;;;4997760;28;20047;-73
2022/04/04 04:31:12;;;;;;;26.77;15.43;;;4.80;99.90;;;;;;4998157;28;20419;-73
2022/04/04 04:33:37;;;;;;;21.02;15.60;;;4.80;99.90;;;;;;4997692;28;20343;-72
2022/04/04 04:36:03;;;;;;;27.42;15.85;;;4.80;99.90;;;;;;4994733;28;20069;-73
2022/04/04 04:38:30;;;;;;;25.45;15.15;;;4.80;99.90;;;;;;4997473;28;20515;-74
2022/04/04 04:40:56;;;;;;;25.02;16.10;;;4.80;99.90;;;;;;4997703;28;20093;-72
2022/04/04 04:43:22;;;;;;;28.73;16.98;;;4.90;99.90;;;;;;4996985;28;20050;-72
2022/04/04 04:45:48;;;;;;;24.00;15.35;;;4.80;99.90;;;;;;4997113;28;20053;-73
2022/04/04 04:48:14;;;;;;;22.80;14.35;;;4.80;99.90;;;;;;4997410;28;20125;-72
2022/04/04 04:50:39;;;;;;;23.15;14.68;;;4.90;99.90;;;;;;4997612;28;20054;-72
2022/04/04 04:53:06;;;;;;;23.35;15.80;;;4.80;99.90;;;;;;4997336;28;20510;-72
2022/04/04 04:55:31;;;;;;;20.02;14.77;;;4.90;99.90;;;;;;4997278;28;20352;-73
2022/04/04 04:57:57;;;;;;;23.88;15.27;;;4.80;99.90;;;;;;4997113;28;20054;-71
2022/04/04 05:00:26;;;;;;;25.15;15.10;;;4.90;99.90;;;;;;4996224;28;20054;-71
2022/04/04 05:05:37;;;;;;;25.95;16.27;;;4.90;99.90;;;;;;4994436;28;20117;-73
2022/04/04 05:08:04;;;;;;;25.92;14.90;;;4.90;99.90;;;;;;4996753;28;20114;-72
2022/04/04 05:10:30;;;;;;;26.50;16.27;;;4.90;99.90;;;;;;4996598;28;20053;-71
2022/04/04 05:12:56;;;;;;;24.33;15.10;;;4.80;99.90;;;;;;4996110;28;20446;-72
2022/04/04 05:15:23;;;;;;;23.38;15.73;;;4.90;99.90;;;;;;4996218;28;20458;-71
2022/04/04 05:17:52;;;;;;;25.75;17.10;;;4.90;99.90;;;;;;4998441;28;20038;-72
2022/04/04 05:20:21;;;;;;;26.55;16.10;;;4.80;99.90;;;;;;4987242;28;20446;-71
2022/04/04 05:22:47;;;;;;;29.08;16.50;;;4.80;99.90;;;;;;4996159;28;20054;-71
2022/04/04 05:25:13;;;;;;;23.67;16.88;;;4.80;99.90;;;;;;4996132;28;20461;-72
2022/04/04 05:27:39;;;;;;;27.92;16.65;;;4.80;99.90;;;;;;4996391;28;20113;-71
2022/04/04 05:30:06;;;;;;;25.13;16.73;;;4.80;99.90;;;;;;4996443;28;20131;-72
2022/04/04 05:32:31;;;;;;;23.02;16.58;;;4.80;99.90;;;;;;4996073;28;20050;-72
2022/04/04 05:34:57;;;;;;;26.20;16.75;;;4.80;99.90;;;;;;4978534;28;20046;-72
2022/04/04 05:37:22;;;;;;;27.48;16.95;;;4.80;99.90;;;;;;4978800;28;20128;-70
2022/04/04 05:39:48;;;;;;;26.60;16.77;;;4.80;99.90;;;;;;4995865;28;20049;-72
2022/04/04 05:42:16;;;;;;;21.58;16.98;;;4.80;99.90;;;;;;4995615;28;20046;-72
2022/04/04 05:44:41;;;;;;;25.25;16.90;;;4.80;99.90;;;;;;4993978;28;20057;-71
2022/04/04 05:47:09;;;;;;;28.20;16.52;;;4.80;99.90;;;;;;4995532;28;20047;-71
2022/04/04 05:49:35;;;;;;;25.23;15.85;;;4.80;99.90;;;;;;4995506;28;20462;-71
2022/04/04 05:52:01;;;;;;;29.33;17.42;;;4.80;99.90;;;;;;4995268;28;20049;-71
2022/04/04 05:54:26;;;;;;;25.85;17.40;;;4.80;99.90;;;;;;4995202;28;20137;-70
2022/04/04 05:56:52;;;;;;;27.67;17.63;;;4.80;99.90;;;;;;4995201;28;20434;-71
2022/04/04 05:59:18;;;;;;;24.35;16.67;;;4.80;99.90;;;;;;4995206;28;20126;-71
2022/04/04 06:01:43;;;;;;;28.48;18.25;;;4.80;99.90;;;;;;4995736;28;20502;-71
2022/04/04 06:04:09;;;;;;;34.80;17.77;;;4.80;99.90;;;;;;4995831;28;20082;-71
2022/04/04 06:06:35;;;;;;;26.50;18.00;;;4.80;99.90;;;;;;4995852;28;20046;-71
2022/04/04 06:09:01;;;;;;;31.70;17.10;;;4.80;99.90;;;;;;4995667;28;20082;-71
2022/04/04 06:11:26;;;;;;;28.85;18.38;;;4.70;99.90;;;;;;4995334;28;20039;-71
2022/04/04 06:13:52;;;;;;;29.95;18.15;;;4.80;99.90;;;;;;4995313;28;20046;-70
2022/04/04 06:16:17;;;;;;;30.38;19.15;;;4.70;99.90;;;;;;4978041;28;20451;-70
2022/04/04 06:18:43;;;;;;;31.63;17.85;;;4.80;99.90;;;;;;4995511;28;20363;-72
2022/04/04 06:21:09;;;;;;;31.52;20.00;;;4.70;99.90;;;;;;4978120;28;20432;-72
2022/04/04 06:23:36;;;;;;;25.90;18.23;;;4.70;99.90;;;;;;4995441;28;20122;-71
2022/04/04 06:26:04;;;;;;;29.08;18.27;;;4.70;99.90;;;;;;4977642;28;20050;-71
2022/04/04 06:28:31;;;;;;;30.50;18.77;;;4.70;99.90;;;;;;4995517;28;20124;-71
2022/04/04 06:30:58;;;;;;;30.00;19.25;;;4.70;99.90;;;;;;4978751;28;20054;-71
2022/04/04 06:33:23;;;;;;;30.00;19.08;;;4.70;99.90;;;;;;4995309;28;20340;-71
2022/04/04 06:35:50;;;;;;;34.28;20.73;;;4.70;99.90;;;;;;4995216;28;20057;-71
2022/04/04 06:38:18;;;;;;;30.48;21.15;;;4.90;99.90;;;;;;4995114;28;20042;-70
2022/04/04 06:40:44;;;;;;;29.70;20.35;;;4.70;99.90;;;;;;4995462;28;20061;-72
2022/04/04 06:43:10;;;;;;;30.58;20.63;;;4.70;99.90;;;;;;4994518;28;20050;-72
2022/04/04 06:45:35;;;;;;;25.90;18.73;;;4.70;99.90;;;;;;4968913;28;20057;-74
2022/04/04 06:48:01;;;;;;;28.40;19.25;;;4.70;99.90;;;;;;4994996;28;20054;-71
2022/04/04 06:50:29;;;;;;;32.83;19.90;;;4.70;99.90;;;;;;4995699;28;20049;-71
2022/04/04 06:52:54;;;;;;;28.75;19.13;;;4.80;99.90;;;;;;4995057;28;20053;-71
2022/04/04 06:55:20;;;;;;;28.35;17.48;;;4.80;99.90;;;;;;4995425;28;20038;-71
2022/04/04 06:57:46;;;;;;;23.40;17.65;;;4.80;99.90;;;;;;4995010;28;20149;-71
2022/04/04 07:00:12;;;;;;;23.70;16.30;;;4.80;99.90;;;;;;4994904;28;20050;-72
2022/04/04 07:02:39;;;;;;;24.20;16.20;;;4.80;99.90;;;;;;4977556;28;20124;-72
2022/04/04 07:05:05;;;;;;;26.35;15.25;;;4.70;99.90;;;;;;4994021;28;20047;-71
2022/04/04 07:07:32;;;;;;;21.13;13.73;;;4.80;99.90;;;;;;4977440;28;20054;-70
2022/04/04 07:09:59;;;;;;;26.85;17.10;;;4.80;99.90;;;;;;4974555;28;20046;-70
2022/04/04 07:12:25;;;;;;;25.50;16.95;;;4.80;99.90;;;;;;4976415;28;20073;-70
2022/04/04 07:14:51;;;;;;;27.02;17.92;;;4.90;99.90;;;;;;4994231;28;20050;-70
2022/04/04 07:17:16;;;;;;;25.40;17.80;;;4.80;99.90;;;;;;4993832;28;20056;-70
2022/04/04 07:19:42;;;;;;;29.67;17.50;;;4.80;99.90;;;;;;4994374;28;20406;-70
2022/04/04 07:22:08;;;;;;;24.55;17.48;;;4.80;99.90;;;;;;4992817;28;20050;-70
2022/04/04 07:24:33;;;;;;;23.05;17.23;;;4.80;99.90;;;;;;4994594;28;20112;-70
2022/04/04 07:26:59;;;;;;;25.05;15.95;;;4.80;99.90;;;;;;4994211;28;20042;-70
2022/04/04 07:29:24;;;;;;;28.73;17.25;;;4.80;99.90;;;;;;4994081;28;20051;-73
2022/04/04 07:31:50;;;;;;;27.30;16.40;;;4.90;99.90;;;;;;4993277;28;20050;-70
2022/04/04 07:34:16;;;;;;;24.02;16.35;;;4.90;99.90;;;;;;4975636;28;20050;-69
2022/04/04 07:36:41;;;;;;;27.48;17.42;;;4.90;99.90;;;;;;4993071;28;20132;-70
2022/04/04 07:39:08;;;;;;;26.13;15.77;;;4.90;99.90;;;;;;4995976;28;20053;-71
2022/04/04 07:41:34;;;;;;;28.02;18.45;;;4.90;99.90;;;;;;4979997;28;20046;-72
2022/04/04 07:44:00;;;;;;;31.65;18.23;;;4.90;99.90;;;;;;4997289;28;20073;-71
2022/04/04 07:46:26;;;;;;;30.13;19.50;;;5.00;99.90;;;;;;4997154;28;20057;-70
2022/04/04 07:48:55;;;;;;;28.92;18.02;;;5.00;99.90;;;;;;4997838;28;20340;-72
2022/04/04 07:51:21;;;;;;;26.25;18.73;;;5.10;99.90;;;;;;4997741;28;20058;-72
2022/04/04 07:53:47;;;;;;;28.05;18.98;;;5.10;99.90;;;;;;4997436;28;20395;-73
2022/04/04 07:56:13;;;;;;;23.45;17.25;;;5.10;99.90;;;;;;4997326;28;20082;-71
2022/04/04 07:58:38;;;;;;;23.60;16.05;;;5.20;99.90;;;;;;4997385;28;20089;-72
2022/04/04 08:01:04;;;;;;;24.83;17.20;;;5.20;99.90;;;;;;4997090;28;20054;-72
2022/04/04 08:03:30;;;;;;;24.58;16.00;;;5.20;99.90;;;;;;4997454;28;20078;-72
2022/04/04 08:05:55;;;;;;;19.83;14.13;;;5.20;99.90;;;;;;4997109;28;20042;-73
2022/04/04 08:08:21;;;;;;;19.30;14.05;;;5.20;99.90;;;;;;4996973;28;20053;-72
2022/04/04 08:10:47;;;;;;;21.10;12.82;;;5.30;99.90;;;;;;4979729;28;20050;-72
2022/04/04 08:13:12;;;;;;;18.23;11.77;;;5.30;99.90;;;;;;4980212;28;20049;-72
2022/04/04 08:15:38;;;;;;;14.55;10.93;;;5.30;99.90;;;;;;4996895;28;20510;-72
2022/04/04 08:18:04;;;;;;;16.95;10.98;;;5.40;99.90;;;;;;4996952;28;20133;-72
2022/04/04 08:20:30;;;;;;;19.23;10.18;;;5.40;99.90;;;;;;4993777;28;20394;-71
2022/04/04 08:22:56;;;;;;;16.17;10.38;;;5.40;99.90;;;;;;4996967;28;20047;-71
2022/04/04 08:25:21;;;;;;;18.65;9.85;;;5.40;99.90;;;;;;4996580;28;20047;-71
2022/04/04 08:27:47;;;;;;;14.27;9.40;;;5.50;99.90;;;;;;4996503;28;20045;-70
2022/04/04 08:30:15;;;;;;;12.70;8.95;;;5.70;99.90;;;;;;4995366;28;20054;-70
2022/04/04 08:32:42;;;;;;;13.00;8.85;;;5.50;99.90;;;;;;4996607;28;20046;-70
2022/04/04 08:35:10;;;;;;;17.60;9.05;;;5.60;99.90;;;;;;4996718;28;20366;-71
2022/04/04 08:37:37;;;;;;;16.13;8.80;;;5.60;99.90;;;;;;4993045;28;20057;-71
2022/04/04 08:40:05;;;;;;;12.02;7.88;;;5.60;99.90;;;;;;4978937;28;20439;-70
2022/04/04 08:42:31;;;;;;;13.57;8.70;;;5.70;99.90;;;;;;4996186;28;20057;-71
2022/04/04 08:45:00;;;;;;;11.90;8.15;;;5.70;99.90;;;;;;4996033;28;20042;-71
2022/04/04 08:47:29;;;;;;;11.18;7.38;;;5.80;99.90;;;;;;4995287;28;20134;-72
2022/04/04 08:49:56;;;;;;;13.48;7.47;;;5.80;99.90;;;;;;4961860;28;20050;-71
2022/04/04 08:52:23;;;;;;;11.95;6.38;;;5.90;99.90;;;;;;5000519;28;20081;-68
2022/04/04 08:54:49;;;;;;;10.98;6.43;;;5.90;99.90;;;;;;4976037;28;20046;-70
2022/04/04 08:57:16;;;;;;;10.20;5.95;;;5.90;99.90;;;;;;5012785;28;20034;-71
2022/04/04 08:59:42;;;;;;;8.23;5.82;;;5.90;99.90;;;;;;5015540;28;20050;-71
2022/04/04 09:02:08;;;;;;;9.43;5.75;;;5.90;99.90;;;;;;5015905;28;20119;-71
2022/04/04 09:04:34;;;;;;;10.88;5.20;;;6.00;99.90;;;;;;5009390;28;20050;-70
2022/04/04 09:07:05;;;;;;;13.63;6.40;;;6.10;99.90;;;;;;4996015;28;20455;-71
2022/04/04 09:09:50;;;;;;;7.88;4.85;;;6.10;99.90;;;;;;4977788;28;20057;-72
2022/04/04 09:12:24;;;;;;;9.93;5.03;;;6.10;99.90;;;;;;4996003;28;20054;-71
2022/04/04 09:14:58;;;;;;;9.57;4.72;;;6.10;99.90;;;;;;4996069;28;20081;-71
2022/04/04 09:17:30;;;;;;;10.52;5.10;;;6.10;99.90;;;;;;4995835;28;20133;-71
2022/04/04 09:19:57;;;;;;;7.03;4.50;;;6.10;99.90;;;;;;4994705;28;20061;-71
2022/04/04 09:22:24;;;;;;;6.53;4.40;;;6.10;99.90;;;;;;4992538;28;20086;-72
2022/04/04 09:24:57;;;;;;;5.90;3.88;;;6.10;99.90;;;;;;4959238;28;20508;-72
2022/04/04 09:27:29;;;;;;;8.38;4.03;;;6.10;99.90;;;;;;4976586;28;20047;-72
2022/04/04 09:30:00;;;;;;;5.50;4.10;;;6.20;99.90;;;;;;4976318;28;20050;-72
2022/04/04 09:32:43;;;;;;;7.13;3.92;;;6.20;99.90;;;;;;5013217;28;20045;-72
2022/04/04 09:35:14;;;;;;;6.90;4.10;;;6.20;99.90;;;;;;4998317;28;20650;-71
2022/04/04 09:37:42;;;;;;;7.40;3.78;;;6.20;99.90;;;;;;5015433;28;20350;-72
2022/04/04 09:40:09;;;;;;;8.20;3.92;;;6.20;99.90;;;;;;5015790;28;20056;-71
2022/04/04 09:42:36;;;;;;;6.88;4.22;;;6.20;99.90;;;;;;5015316;28;20041;-71
2022/04/04 09:45:13;;;;;;;5.20;3.65;;;6.30;99.90;;;;;;5015378;28;20198;-72
2022/04/04 09:47:50;;;;;;;7.97;3.83;;;6.30;99.90;;;;;;5015729;28;20343;-71
2022/04/04 09:50:42;;;;;;;9.15;3.67;;;6.30;99.90;;;;;;5001596;28;20103;-73
2022/04/04 09:53:12;;;;;;;10.45;4.57;;;6.30;99.90;;;;;;4995716;28;20081;-72
2022/04/04 09:55:45;;;;;;;8.43;4.00;;;6.30;99.90;;;;;;4995634;28;20042;-73
2022/04/04 09:58:17;;;;;;;9.15;4.22;;;6.40;99.90;;;;;;4995590;28;20050;-73
2022/04/04 10:00:44;;;;;;;6.70;3.78;;;6.40;99.90;;;;;;4995363;28;20104;-72
2022/04/04 10:03:14;;;;;;;9.70;3.90;;;6.50;99.90;;;;;;4995923;28;20081;-72
2022/04/04 10:05:47;;;;;;;10.18;4.40;;;6.50;99.90;;;;;;4995029;28;20509;-72
2022/04/04 10:08:15;;;;;;;7.85;4.10;;;6.60;99.90;;;;;;4995084;28;20137;-72
2022/04/04 10:10:42;;;;;;;8.00;4.07;;;6.60;99.90;;;;;;4995573;28;20399;-73
2022/04/04 10:13:09;;;;;;;9.77;4.88;;;6.60;99.90;;;;;;4995257;28;20120;-72
2022/04/04 10:15:38;;;;;;;9.65;4.18;;;6.60;99.90;;;;;;5006942;28;20049;-72
2022/04/04 10:18:06;;;;;;;7.85;4.00;;;6.60;99.90;;;;;;4973155;28;20133;-72
2022/04/04 10:20:32;;;;;;;7.72;4.20;;;6.60;99.90;;;;;;4988201;28;20130;-72
2022/04/04 10:22:59;;;;;;;9.63;4.40;;;6.60;99.90;;;;;;4958476;28;20050;-73
2022/04/04 10:25:27;;;;;;;7.00;3.90;;;6.70;99.90;;;;;;4977435;28;20042;-71
2022/04/04 10:27:53;;;;;;;6.22;3.78;;;6.70;99.90;;;;;;4994624;28;20058;-71
2022/04/04 10:30:42;;;;;;;12.65;4.07;;;6.70;99.90;;;;;;4994333;28;20066;-72
2022/04/04 10:33:23;;;;;;;6.22;3.75;;;6.70;99.90;;;;;;4991134;28;20115;-71
2022/04/04 10:36:06;;;;;;;6.70;3.92;;;6.70;99.90;;;;;;4994987;28;20046;-73
2022/04/04 10:38:46;;;;;;;6.90;3.97;;;6.80;99.90;;;;;;4990882;28;20050;-73
2022/04/04 10:41:14;;;;;;;8.48;3.83;;;6.80;99.90;;;;;;4992148;28;20049;-71
2022/04/04 10:43:50;;;;;;;8.30;3.55;;;6.80;99.90;;;;;;4994784;28;20367;-72
2022/04/04 10:46:18;;;;;;;7.55;3.67;;;6.80;99.90;;;;;;4994818;28;20133;-72
2022/04/04 10:48:51;;;;;;;9.10;3.60;;;6.80;99.90;;;;;;4990459;28;20051;-72
2022/04/04 10:51:26;;;;;;;7.00;3.55;;;6.90;99.90;;;;;;4971990;28;20039;-73
2022/04/04 10:53:57;;;;;;;7.28;3.60;;;6.80;99.90;;;;;;4987599;28;20155;-73
2022/04/04 10:56:33;;;;;;;7.10;3.60;;;6.90;99.90;;;;;;4989382;28;20046;-72
2022/04/04 10:59:18;;;;;;;8.32;3.88;;;6.90;99.90;;;;;;4991702;28;20050;-73
2022/04/04 11:01:50;;;;;;;6.85;3.55;;;6.90;99.90;;;;;;4989525;28;20065;-72
2022/04/04 11:04:30;;;;;;;8.10;3.60;;;7.00;99.90;;;;;;4994360;28;20459;-72
2022/04/04 11:10:30;;;;;;;6.47;3.28;;;7.00;99.90;;;;;;4994291;28;20046;-73
2022/04/04 11:13:04;;;;;;;13.75;3.30;;;7.10;99.90;;;;;;4953835;28;20104;-73
2022/04/04 11:15:42;;;;;;;8.75;3.40;;;7.10;99.90;;;;;;5007206;28;20105;-73
2022/04/04 11:18:08;;;;;;;7.32;3.00;;;7.10;99.90;;;;;;4997777;28;20117;-73
2022/04/04 11:20:58;;;;;;;4.75;2.90;;;7.10;99.90;;;;;;4998355;28;20075;-73
2022/04/04 11:23:47;;;;;;;6.78;3.13;;;7.20;99.90;;;;;;4981353;28;20058;-73
2022/04/04 11:26:27;;;;;;;5.68;2.70;;;7.20;99.90;;;;;;4987040;28;20058;-73
2022/04/04 11:28:56;;;;;;;3.97;2.45;;;7.30;99.90;;;;;;4997735;28;20105;-71
2022/04/04 11:31:22;;;;;;;6.80;2.75;;;7.30;99.90;;;;;;4997685;28;20061;-71
2022/04/04 11:33:54;;;;;;;6.00;2.60;;;7.40;99.90;;;;;;4997986;28;20069;-73
2022/04/04 11:36:27;;;;;;;3.83;2.33;;;7.40;99.90;;;;;;4997484;28;20061;-75
2022/04/04 11:39:07;;;;;;;4.28;2.60;;;7.50;99.90;;;;;;4981237;28;20433;-70
2022/04/04 11:41:36;;;;;;;3.55;2.28;;;7.50;99.90;;;;;;4985611;28;20073;-69
2022/04/04 11:44:06;;;;;;;3.90;2.00;;;7.50;99.90;;;;;;4981101;28;20065;-69
2022/04/04 11:46:32;;;;;;;3.85;1.70;;;7.60;99.90;;;;;;4998024;28;20042;-70
2022/04/04 11:49:30;;;;;;;3.70;1.70;;;7.60;99.90;;;;;;4999111;28;20054;-70
2022/04/04 11:52:17;;;;;;;4.45;1.60;;;7.70;99.90;;;;;;4961251;28;20065;-71
2022/04/04 11:55:08;;;;;;;2.78;1.60;;;7.70;99.90;;;;;;4986658;28;20367;-71
2022/04/04 11:57:57;;;;;;;3.00;1.80;;;7.70;99.90;;;;;;4988380;28;20138;-73
2022/04/04 12:00:30;;;;;;;3.72;1.67;;;7.70;99.90;;;;;;4974617;28;20113;-72
2022/04/04 12:03:01;;;;;;;3.10;1.55;;;7.70;99.90;;;;;;4980848;28;20054;-71
2022/04/04 12:05:34;;;;;;;3.97;1.92;;;7.70;99.90;;;;;;4964368;28;20466;-71
2022/04/04 12:08:25;;;;;;;3.63;1.70;;;7.70;99.90;;;;;;4997666;28;20050;-71
2022/04/04 12:10:51;;;;;;;3.60;1.40;;;7.70;99.90;;;;;;4993219;28;20061;-72
2022/04/04 12:13:20;;;;;;;3.42;1.50;;;7.70;99.90;;;;;;4997213;28;20034;-72
2022/04/04 12:15:48;;;;;;;3.17;1.50;;;7.80;99.90;;;;;;4993641;28;20050;-71
2022/04/04 12:18:21;;;;;;;4.25;1.40;;;7.80;99.90;;;;;;4997553;28;20042;-72
2022/04/04 12:20:48;;;;;;;2.42;1.23;;;7.80;99.90;;;;;;4980119;28;20058;-71
2022/04/04 12:26:03;;;;;;;2.60;1.48;;;7.90;99.90;;;;;;4996300;28;20050;-74
2022/04/04 12:28:34;;;;;;;3.10;1.33;;;7.90;99.90;;;;;;4996696;28;20061;-74
2022/04/04 12:31:52;;;;;;;4.22;1.25;;;7.90;99.90;;;;;;4996640;28;20111;-72
2022/04/04 12:34:22;;;;;;;4.78;1.48;;;8.00;99.90;;;;;;4945715;28;20055;-71
2022/04/04 12:36:47;;;;;;;1.90;1.27;;;8.00;99.90;;;;;;4952270;29;20048;-71
2022/04/04 12:39:18;;;;;;;2.13;1.30;;;8.00;99.90;;;;;;4976904;28;20073;-72
2022/04/04 12:41:50;;;;;;;9.27;1.70;;;8.10;99.90;;;;;;4996689;28;20065;-71
2022/04/04 12:44:28;;;;;;;4.22;1.30;;;8.00;99.90;;;;;;4995125;28;20053;-71
2022/04/04 12:47:07;;;;;;;1.92;1.30;;;8.10;99.90;;;;;;4983573;28;20378;-70
2022/04/04 12:49:33;;;;;;;1.75;1.10;;;8.10;99.90;;;;;;4976885;28;20685;-71
2022/04/04 12:52:05;;;;;;;1.88;1.20;;;8.10;99.90;;;;;;4995356;28;20046;-71
2022/04/04 12:54:34;;;;;;;2.08;1.30;;;8.20;99.90;;;;;;4995167;28;20514;-70
2022/04/04 12:57:03;;;;;;;2.28;1.52;;;8.20;99.90;;;;;;4995845;28;20069;-72
2022/04/04 12:59:29;;;;;;;1.80;1.20;;;8.30;99.90;;;;;;4979339;28;20146;-71
2022/04/04 13:02:09;;;;;;;2.35;1.30;;;8.30;99.90;;;;;;4978935;28;20038;-72
2022/04/04 13:04:35;;;;;;;1.83;1.13;;;8.30;99.90;;;;;;4995679;28;20116;-72